Time;durP1;ratioP1;P1;durP2;ratioP2;P2;SDS_P1;SDS_P2;PMS_P1;PMS_P2;Temp;Humidity;BMP_temperature;BMP_pressure;BME280_temperature;BME280_humidity;BME280_pressure;Samples;Min_cycle;Max_cycle;Signal;HPM_P1;HPM_P2
2023/03/07 00:04:52;;;;;;;1.25;0.50;;;;;;;19.41;38.14;99919.22;16119584;19;129788;-40
2023/03/07 00:10:14;;;;;;;1.92;0.55;;;;;;;19.38;38.36;99922.56;16116891;19;131249;-39
2023/03/07 00:15:37;;;;;;;2.50;0.40;;;;;;;19.33;38.33;99915.06;16119818;19;130779;-40
2023/03/07 00:21:02;;;;;;;0.30;0.30;;;;;;;19.32;38.27;99921.69;16114339;19;131542;-40
2023/03/07 00:26:26;;;;;;;0.93;0.40;;;;;;;19.28;37.79;99912.28;16109279;19;131045;-41
2023/03/07 00:31:48;;;;;;;1.20;0.45;;;;;;;19.26;38.04;99911.72;16116797;19;130694;-41
2023/03/07 00:37:10;;;;;;;2.03;0.50;;;;;;;19.22;37.74;99905.06;16117709;19;133187;-39
2023/03/07 00:42:31;;;;;;;1.00;0.30;;;;;;;19.18;38.11;99906.72;16123046;19;130071;-40
2023/03/07 00:47:55;;;;;;;0.93;0.40;;;;;;;19.16;37.87;99906.13;16119262;19;130015;-40
2023/03/07 00:53:17;;;;;;;2.05;0.30;;;;;;;19.14;37.85;99911.94;16115542;19;130621;-40
2023/03/07 00:58:39;;;;;;;1.08;0.30;;;;;;;19.12;37.54;99902.25;16112527;19;129270;-40
2023/03/07 01:04:02;;;;;;;1.80;0.60;;;;;;;19.08;37.58;99905.56;16114005;19;131023;-40
2023/03/07 01:09:24;;;;;;;1.55;0.60;;;;;;;19.06;37.93;99904.19;16115378;19;129238;-40
2023/03/07 01:14:49;;;;;;;0.30;0.20;;;;;;;19.05;37.57;99889.50;16116706;19;129364;-40
2023/03/07 01:20:11;;;;;;;0.50;0.40;;;;;;;19.01;37.98;99891.16;16113185;19;130193;-40
2023/03/07 01:25:40;;;;;;;0.43;0.20;;;;;;;19.00;37.80;99881.16;16114819;19;130564;-39
2023/03/07 01:31:02;;;;;;;0.73;0.30;;;;;;;18.98;37.75;99875.06;16112926;19;130459;-40
2023/03/07 01:36:29;;;;;;;1.05;0.30;;;;;;;18.96;37.71;99870.91;16118309;19;130429;-39
2023/03/07 01:41:51;;;;;;;1.60;0.32;;;;;;;18.94;37.94;99862.03;16131223;19;130679;-39
2023/03/07 01:47:13;;;;;;;1.45;0.30;;;;;;;18.90;37.47;99856.19;16129781;19;130005;-40
2023/03/07 01:52:38;;;;;;;0.38;0.30;;;;;;;18.87;37.64;99852.06;16124838;19;131272;-39
2023/03/07 01:58:07;;;;;;;1.13;0.40;;;;;;;18.84;37.79;99844.28;16126098;19;130005;-39
2023/03/07 02:03:36;;;;;;;1.02;0.20;;;;;;;18.83;37.47;99839.03;16126243;19;129713;-39
2023/03/07 02:08:59;;;;;;;1.60;0.35;;;;;;;18.81;37.66;99824.59;16127006;19;130322;-40
2023/03/07 02:14:21;;;;;;;1.15;0.40;;;;;;;18.79;37.84;99810.19;16126872;19;129664;-42
2023/03/07 02:20:07;;;;;;;0.43;0.25;;;;;;;18.77;37.95;99811.28;16122143;19;131729;-39
2023/03/07 02:25:39;;;;;;;0.57;0.20;;;;;;;18.76;37.54;99795.78;16127923;19;130870;-40
2023/03/07 02:31:05;;;;;;;0.50;0.20;;;;;;;18.74;37.87;99789.66;16121413;19;131063;-39
2023/03/07 02:36:31;;;;;;;1.02;0.43;;;;;;;18.72;37.52;99793.81;16125189;19;130162;-40
2023/03/07 02:41:54;;;;;;;;;;;;;;;18.66;37.77;99784.69;16126319;19;130155;-39
2023/03/07 02:47:15;;;;;;;0.82;0.50;;;;;;;18.67;37.80;99791.03;16123364;19;130737;-39
2023/03/07 02:52:38;;;;;;;0.88;0.35;;;;;;;18.66;37.87;99775.50;16123097;19;130252;-40
2023/03/07 02:57:59;;;;;;;0.82;0.50;;;;;;;18.64;37.41;99775.81;16123751;19;130541;-41
2023/03/07 03:03:21;;;;;;;0.60;0.30;;;;;;;18.61;37.68;99765.25;16120768;19;130114;-40
2023/03/07 03:08:43;;;;;;;0.93;0.43;;;;;;;18.60;37.35;99758.06;16123225;19;129552;-40
2023/03/07 03:14:05;;;;;;;0.82;0.40;;;;;;;18.57;37.75;99758.63;16120963;19;130220;-40
2023/03/07 03:19:28;;;;;;;0.47;0.35;;;;;;;18.57;37.54;99753.09;16115670;19;130694;-39
2023/03/07 03:24:50;;;;;;;1.13;0.30;;;;;;;18.55;37.38;99749.75;16122284;19;134352;-39
2023/03/07 03:30:13;;;;;;;0.85;0.50;;;;;;;18.53;37.61;99750.00;16120670;19;130283;-40
2023/03/07 03:35:34;;;;;;;0.93;0.40;;;;;;;18.53;37.66;99751.97;16116626;19;131273;-40
2023/03/07 03:40:56;;;;;;;1.65;0.70;;;;;;;18.51;37.50;99745.88;16117812;19;132458;-39
2023/03/07 03:46:19;;;;;;;1.45;0.50;;;;;;;18.50;37.46;99746.97;16116769;19;129756;-39
2023/03/07 03:51:41;;;;;;;0.63;0.52;;;;;;;18.47;37.29;99731.75;16119301;19;129579;-41
2023/03/07 03:57:03;;;;;;;0.90;0.40;;;;;;;18.46;37.27;99730.06;16118186;19;129712;-40
2023/03/07 04:02:25;;;;;;;2.47;0.60;;;;;;;18.45;37.50;99728.41;16109580;19;131194;-39
2023/03/07 04:07:47;;;;;;;0.50;0.35;;;;;;;18.43;37.16;99723.16;16118215;19;129928;-40
2023/03/07 04:13:12;;;;;;;1.07;0.57;;;;;;;18.42;37.61;99715.94;16114407;19;129644;-40
2023/03/07 04:18:35;;;;;;;0.70;0.43;;;;;;;18.42;37.25;99718.72;16114437;19;130667;-39
2023/03/07 04:23:57;;;;;;;1.30;0.52;;;;;;;18.40;37.21;99709.03;16114652;19;129739;-39
2023/03/07 04:29:19;;;;;;;1.02;0.70;;;;;;;18.38;37.48;99697.38;16115551;19;131338;-40
2023/03/07 04:34:40;;;;;;;1.10;0.50;;;;;;;18.37;37.57;99695.69;16108581;19;129931;-39
2023/03/07 04:40:02;;;;;;;0.40;0.40;;;;;;;18.35;37.10;99690.41;16117531;19;131436;-40
2023/03/07 04:45:24;;;;;;;1.58;0.63;;;;;;;18.33;37.58;99684.34;16115710;19;129827;-40
2023/03/07 04:50:50;;;;;;;1.23;0.60;;;;;;;18.31;37.11;99676.28;16116692;19;129951;-40
2023/03/07 04:56:15;;;;;;;1.75;0.70;;;;;;;18.31;37.57;99672.72;16118118;19;129485;-40
2023/03/07 05:01:36;;;;;;;1.52;0.60;;;;;;;18.29;37.49;99670.19;16114692;19;129702;-40
2023/03/07 05:06:58;;;;;;;1.70;0.55;;;;;;;18.27;37.45;99654.97;16116833;19;130053;-40
2023/03/07 05:12:21;;;;;;;0.60;0.50;;;;;;;18.25;37.07;99646.97;16111853;19;130736;-40
2023/03/07 05:17:42;;;;;;;1.15;0.63;;;;;;;18.24;37.19;99645.28;16110087;19;131266;-40
2023/03/07 05:23:04;;;;;;;1.35;0.52;;;;;;;18.22;37.24;99635.56;16110443;19;130611;-39
2023/03/07 05:28:26;;;;;;;0.70;0.60;;;;;;;18.22;36.89;99635.56;16112094;19;130554;-39
2023/03/07 05:33:48;;;;;;;1.33;0.60;;;;;;;18.20;36.79;99635.88;16111026;19;129456;-40
2023/03/07 05:39:09;;;;;;;1.30;0.60;;;;;;;18.19;37.09;99625.09;16114885;19;129832;-40
2023/03/07 05:44:31;;;;;;;1.25;0.80;;;;;;;18.17;37.06;99627.28;16113337;19;131110;-40
2023/03/07 05:49:54;;;;;;;1.98;0.70;;;;;;;18.17;37.07;99622.56;16112672;19;129147;-39
2023/03/07 05:55:17;;;;;;;2.05;0.82;;;;;;;18.14;36.68;99623.13;16107815;19;131232;-39
2023/03/07 06:00:39;;;;;;;2.42;0.60;;;;;;;18.13;37.08;99615.94;16112248;19;130068;-39
2023/03/07 06:06:00;;;;;;;1.13;0.60;;;;;;;18.14;36.91;99612.88;16108613;19;129903;-39
2023/03/07 06:11:22;;;;;;;1.48;0.75;;;;;;;18.34;36.70;99611.22;16108359;19;131314;-40
2023/03/07 06:16:44;;;;;;;1.30;0.65;;;;;;;18.75;36.56;99605.69;16113038;19;129470;-40
2023/03/07 06:22:07;;;;;;;6.47;0.80;;;;;;;19.12;35.74;99608.38;16108085;19;131335;-40
2023/03/07 06:27:36;;;;;;;5.32;1.17;;;;;;;19.44;35.46;99599.72;16121457;19;129350;-39
2023/03/07 06:32:58;;;;;;;7.15;1.33;;;;;;;19.60;34.78;99594.09;16122074;19;130703;-40
2023/03/07 06:38:20;;;;;;;10.30;1.30;;;;;;;19.67;34.49;99595.44;16120243;19;129550;-40
2023/03/07 06:43:41;;;;;;;6.38;1.45;;;;;;;19.66;34.34;99585.47;16121377;19;129546;-42
2023/03/07 06:49:03;;;;;;;3.05;0.90;;;;;;;19.62;34.11;99592.69;16121585;19;129277;-41
2023/03/07 06:54:25;;;;;;;11.48;1.25;;;;;;;19.55;34.43;99591.34;16118545;19;130610;-40
2023/03/07 06:59:47;;;;;;;4.53;1.15;;;;;;;19.47;34.42;99592.75;16121677;19;130990;-40
2023/03/07 07:05:08;;;;;;;11.40;1.30;;;;;;;19.37;34.29;99593.66;16125714;19;129364;-40
2023/03/07 07:10:30;;;;;;;10.18;1.33;;;;;;;19.27;34.24;99594.50;16127009;19;130951;-40
2023/03/07 07:15:52;;;;;;;6.18;1.00;;;;;;;19.18;34.73;99601.72;16123816;19;129210;-41
2023/03/07 07:21:14;;;;;;;5.63;1.52;;;;;;;19.08;34.57;99608.94;16125025;19;131128;-40
2023/03/07 07:26:36;;;;;;;12.05;1.33;;;;;;;19.00;34.67;99628.94;16122939;19;129790;-40
2023/03/07 07:31:58;;;;;;;4.38;1.60;;;;;;;18.90;34.20;99629.78;16123249;19;130366;-39
2023/03/07 07:37:20;;;;;;;5.15;1.55;;;;;;;18.84;34.38;99621.75;16122286;19;131399;-40
2023/03/07 07:42:42;;;;;;;2.13;1.10;;;;;;;18.77;34.63;99631.19;16122879;19;130147;-44
2023/03/07 07:48:04;;;;;;;1.80;1.00;;;;;;;18.72;34.53;99622.06;16123362;19;129400;-42
2023/03/07 07:53:26;;;;;;;3.33;1.10;;;;;;;18.69;34.61;99629.00;16119676;19;129669;-41
2023/03/07 07:58:48;;;;;;;3.03;1.10;;;;;;;18.68;34.86;99634.78;16123929;19;130861;-41
2023/03/07 08:04:10;;;;;;;2.83;0.82;;;;;;;18.68;34.37;99649.50;16121855;19;129711;-42
2023/03/07 08:09:31;;;;;;;6.38;1.40;;;;;;;18.70;34.63;99663.91;16123000;19;130614;-43
2023/03/07 08:14:53;;;;;;;3.60;0.70;;;;;;;18.72;34.55;99645.03;16115774;19;130260;-43
2023/03/07 08:20:15;;;;;;;10.70;1.10;;;;;;;18.79;34.50;99655.84;16120015;19;133084;-41
2023/03/07 08:25:37;;;;;;;12.75;1.58;;;;;;;18.98;34.26;99663.59;16114097;19;131037;-41
2023/03/07 08:31:07;;;;;;;4.57;1.00;;;;;;;19.23;33.65;99665.50;16119061;19;129681;-42
2023/03/07 08:36:28;;;;;;;7.20;1.02;;;;;;;19.45;33.80;99690.13;16117340;19;129782;-42
2023/03/07 08:41:50;;;;;;;4.75;1.00;;;;;;;19.67;33.65;99681.47;16117308;19;135176;-41
2023/03/07 08:47:12;;;;;;;4.47;0.95;;;;;;;19.87;33.05;99690.78;16114817;19;130633;-44
2023/03/07 08:52:34;;;;;;;10.15;1.05;;;;;;;19.99;32.93;99694.09;16116317;19;129700;-42
2023/03/07 08:57:55;;;;;;;7.82;0.85;;;;;;;20.04;33.01;99690.47;16117455;19;129385;-42
2023/03/07 09:03:17;;;;;;;3.60;0.80;;;;;;;20.01;32.78;99685.47;16116310;19;131624;-42
2023/03/07 09:08:43;;;;;;;2.43;0.83;;;;;;;19.93;33.31;99695.22;16115702;19;131743;-41
2023/03/07 09:14:04;;;;;;;15.77;1.55;;;;;;;19.84;32.91;99697.75;16117988;19;131506;-46
2023/03/07 09:19:26;;;;;;;14.80;1.02;;;;;;;19.76;33.29;99703.88;16114671;19;131924;-41
2023/03/07 09:24:48;;;;;;;10.70;1.83;;;;;;;19.66;33.20;99702.00;16117337;19;129435;-42
2023/03/07 09:30:11;;;;;;;8.40;1.08;;;;;;;19.58;33.39;99696.19;16113927;19;129319;-45
2023/03/07 09:35:33;;;;;;;14.73;1.35;;;;;;;19.50;33.65;99697.59;16115078;19;130456;-42
2023/03/07 09:41:03;;;;;;;12.20;1.15;;;;;;;19.45;33.89;99700.38;16115651;19;129082;-42
2023/03/07 09:46:41;;;;;;;16.77;1.52;;;;;;;19.41;33.84;99690.97;16111449;19;130027;-42
2023/03/07 09:52:12;;;;;;;16.75;1.17;;;;;;;19.35;34.11;99695.72;16114857;19;129803;-43
2023/03/07 09:57:56;;;;;;;14.25;1.40;;;;;;;19.30;34.08;99699.31;16121626;19;130057;-45
2023/03/07 10:03:40;;;;;;;10.35;1.40;;;;;;;19.22;34.26;99692.41;16132174;19;130721;-43
2023/03/07 10:09:04;;;;;;;7.50;1.30;;;;;;;19.14;33.93;99692.09;16129640;19;129187;-40
2023/03/07 10:14:37;;;;;;;9.57;1.17;;;;;;;19.09;33.92;99698.50;16128015;19;129516;-42
2023/03/07 10:20:23;;;;;;;21.90;2.00;;;;;;;19.01;34.31;99694.34;16129202;19;129563;-44
2023/03/07 10:25:55;;;;;;;11.03;1.10;;;;;;;18.96;34.05;99694.34;16129373;19;130280;-42
2023/03/07 10:31:38;;;;;;;13.02;1.50;;;;;;;18.91;34.82;99686.03;16126859;19;130756;-42
2023/03/07 10:37:09;;;;;;;9.50;1.20;;;;;;;18.86;34.64;99694.34;16125388;19;130906;-41
2023/03/07 10:42:35;;;;;;;11.40;1.33;;;;;;;18.84;34.95;99691.88;16125145;19;129368;-42
2023/03/07 10:48:04;;;;;;;9.45;0.82;;;;;;;18.85;34.78;99687.16;16126748;19;129636;-41
2023/03/07 10:53:33;;;;;;;11.52;1.08;;;;;;;18.85;34.92;99698.22;16127793;19;129575;-41
2023/03/07 10:59:04;;;;;;;5.68;1.00;;;;;;;18.86;35.13;99703.50;16123978;19;130475;-41
2023/03/07 11:04:29;;;;;;;4.35;0.60;;;;;;;18.84;35.32;99702.09;16125490;19;132234;-41
2023/03/07 11:09:51;;;;;;;6.35;0.90;;;;;;;18.86;34.82;99699.91;16127082;19;129437;-42
2023/03/07 11:15:22;;;;;;;11.43;0.98;;;;;;;18.87;35.44;99702.41;16129118;19;129556;-44
2023/03/07 11:20:48;;;;;;;9.07;1.02;;;;;;;19.00;35.42;99701.00;16125605;19;130579;-41
2023/03/07 11:26:20;;;;;;;2.58;0.65;;;;;;;19.27;35.47;99708.19;16127229;19;134207;-43
2023/03/07 11:31:54;;;;;;;8.75;0.90;;;;;;;19.58;35.20;99716.44;16121734;19;130398;-42
2023/03/07 11:37:28;;;;;;;6.70;0.75;;;;;;;19.90;34.59;99711.59;16124167;19;129203;-41
2023/03/07 11:43:15;;;;;;;6.80;0.60;;;;;;;20.14;34.78;99709.00;16123565;19;129499;-44
2023/03/07 11:48:49;;;;;;;1.80;0.60;;;;;;;20.32;34.25;99709.44;16120704;19;130657;-44
2023/03/07 11:54:35;;;;;;;5.35;0.57;;;;;;;20.37;34.64;99706.66;16124226;19;129606;-41
2023/03/07 12:00:26;;;;;;;3.47;0.60;;;;;;;20.34;34.50;99705.28;16123878;19;129634;-43
2023/03/07 12:06:13;;;;;;;0.95;0.40;;;;;;;20.26;34.84;99709.50;16122612;19;129896;-41
2023/03/07 12:11:37;;;;;;;;;;;;;;;20.14;34.84;99709.00;16122734;19;129822;-41
2023/03/07 12:17:14;;;;;;;1.92;0.43;;;;;;;20.06;35.23;99704.06;16123218;19;131232;-42
2023/03/07 12:22:48;;;;;;;4.75;0.40;;;;;;;19.93;35.01;99706.31;16118456;19;129718;-44
2023/03/07 12:28:20;;;;;;;6.70;0.80;;;;;;;19.83;35.54;99701.63;16120128;19;130663;-42
2023/03/07 12:34:12;;;;;;;7.47;0.50;;;;;;;19.74;34.95;99705.28;16119935;19;129792;-42
2023/03/07 12:39:40;;;;;;;3.90;0.70;;;;;;;19.58;35.11;99693.41;16119491;19;129745;-43
2023/03/07 12:45:20;;;;;;;10.23;0.77;;;;;;;19.50;35.76;99703.16;16120428;19;130220;-40
2023/03/07 12:50:50;;;;;;;1.85;0.40;;;;;;;19.45;35.90;99695.66;16116009;19;129769;-41
2023/03/07 12:56:30;;;;;;;13.50;1.17;;;;;;;19.47;35.86;99692.59;16120564;19;130775;-42
2023/03/07 13:02:00;;;;;;;23.77;1.05;;;;;;;19.49;36.18;99693.16;16114239;19;130124;-43
2023/03/07 13:07:32;;;;;;;13.32;0.90;;;;;;;19.55;36.21;99688.44;16118518;19;129563;-42
2023/03/07 13:12:54;;;;;;;43.20;15.98;;;;;;;19.61;36.47;99687.31;16116999;19;130149;-42
2023/03/07 13:18:28;;;;;;;110.32;61.38;;;;;;;19.74;36.33;99696.97;16116903;19;129728;-46
2023/03/07 13:24:30;;;;;;;120.50;62.75;;;;;;;19.81;36.52;99690.00;16116947;19;130893;-43
2023/03/07 13:30:19;;;;;;;82.05;44.83;;;;;;;19.87;36.85;99701.06;16114722;19;129320;-41
2023/03/07 13:35:46;;;;;;;66.10;33.05;;;;;;;19.84;36.95;99696.91;16124341;19;130347;-41
2023/03/07 13:41:10;;;;;;;51.72;25.85;;;;;;;19.79;36.62;99703.31;16128222;19;129718;-41
2023/03/07 13:46:41;;;;;;;51.22;23.92;;;;;;;19.74;36.72;99702.50;16128283;19;130894;-44
2023/03/07 13:52:32;;;;;;;38.65;19.88;;;;;;;19.64;37.16;99698.66;16127903;19;130460;-44
2023/03/07 13:57:55;;;;;;;30.38;15.77;;;;;;;19.57;37.33;99698.13;16128903;19;130230;-42
2023/03/07 14:03:26;;;;;;;42.05;21.42;;;;;;;19.50;37.10;99695.66;16132911;19;129693;-42
2023/03/07 14:08:49;;;;;;;46.17;20.77;;;;;;;19.43;37.07;99703.44;16133034;19;130484;-41
2023/03/07 14:14:33;;;;;;;38.22;17.40;;;;;;;19.41;36.85;99704.84;16132451;19;130838;-47
2023/03/07 14:20:26;;;;;;;35.53;16.80;;;;;;;19.35;37.46;99710.38;16130350;19;133665;-42
2023/03/07 14:25:53;;;;;;;40.78;15.00;;;;;;;19.28;37.19;99712.63;16133269;19;130109;-43
2023/03/07 14:31:27;;;;;;;32.03;13.77;;;;;;;19.26;37.45;99725.94;16131049;19;130686;-42
2023/03/07 14:36:59;;;;;;;24.65;11.35;;;;;;;19.17;37.43;99733.16;16129702;19;129583;-42
2023/03/07 14:42:31;;;;;;;25.95;10.85;;;;;;;19.10;37.54;99733.44;16123646;19;131076;-42
2023/03/07 14:48:22;;;;;;;20.52;8.55;;;;;;;19.01;37.07;99746.19;16125570;19;131179;-42
2023/03/07 14:53:44;;;;;;;13.60;5.28;;;;;;;18.91;35.99;99747.00;16121286;19;129826;-43
2023/03/07 14:59:08;;;;;;;14.50;4.45;;;;;;;18.91;35.20;99747.00;16127390;19;129721;-42
2023/03/07 15:04:40;;;;;;;9.00;3.60;;;;;;;19.15;35.30;99757.53;16126430;19;130811;-41
2023/03/07 15:10:01;;;;;;;9.63;2.83;;;;;;;19.58;34.80;99760.81;16125818;19;130087;-41
2023/03/07 15:15:23;;;;;;;7.78;2.65;;;;;;;20.11;34.42;99770.66;16127002;19;129731;-42
2023/03/07 15:20:46;;;;;;;8.45;2.25;;;;;;;20.58;34.00;99772.06;16124482;19;130514;-43
2023/03/07 15:26:19;;;;;;;4.95;1.80;;;;;;;20.90;33.38;99770.78;16121017;19;129742;-44
2023/03/07 15:31:50;;;;;;;3.70;1.55;;;;;;;21.08;33.40;99773.94;16124438;19;129559;-45
2023/03/07 15:37:25;;;;;;;6.32;1.77;;;;;;;21.06;33.57;99782.59;16124277;19;130204;-42
2023/03/07 15:42:55;;;;;;;5.00;1.50;;;;;;;20.92;33.38;99787.16;16122629;19;129493;-46
2023/03/07 15:48:33;;;;;;;3.55;1.17;;;;;;;20.77;33.56;99790.88;16126810;19;129472;-43
2023/03/07 15:53:59;;;;;;;2.83;1.25;;;;;;;20.60;33.97;99786.50;16123289;19;129467;-44
2023/03/07 15:59:27;;;;;;;2.53;1.20;;;;;;;20.44;34.15;99799.66;16122792;19;129532;-41
2023/03/07 16:04:48;;;;;;;1.67;0.98;;;;;;;20.29;34.06;99803.34;16123724;19;129670;-42
2023/03/07 16:10:10;;;;;;;2.55;1.08;;;;;;;20.14;34.43;99811.75;16119418;19;134614;-44
2023/03/07 16:15:32;;;;;;;1.52;1.00;;;;;;;20.01;34.55;99804.84;16122199;19;130087;-49
2023/03/07 16:20:54;;;;;;;2.28;0.98;;;;;;;19.86;34.44;99811.25;16118017;19;129100;-45
2023/03/07 16:26:21;;;;;;;1.33;0.82;;;;;;;19.78;34.85;99812.66;16120184;19;135625;-47
2023/03/07 16:31:43;;;;;;;3.80;1.10;;;;;;;19.61;34.86;99821.28;16121802;19;129847;-48
2023/03/07 16:37:05;;;;;;;1.98;0.73;;;;;;;19.51;34.97;99827.69;16118316;19;130760;-47
2023/03/07 16:42:27;;;;;;;9.15;1.48;;;;;;;19.44;34.63;99837.41;16117584;19;129505;-50
2023/03/07 16:47:57;;;;;;;5.50;0.68;;;;;;;19.35;34.77;99840.72;16121654;19;129189;-45
2023/03/07 16:53:19;;;;;;;3.60;0.70;;;;;;;19.26;34.74;99841.59;16118536;19;131882;-43
2023/03/07 16:58:40;;;;;;;1.23;0.70;;;;;;;19.18;35.19;99845.72;16119618;19;130191;-42
2023/03/07 17:04:04;;;;;;;1.95;0.57;;;;;;;19.12;34.66;99860.66;16116835;19;129593;-41
2023/03/07 17:09:26;;;;;;;1.25;0.77;;;;;;;19.07;34.92;99867.88;16113589;19;129664;-42
2023/03/07 17:14:48;;;;;;;1.17;0.68;;;;;;;19.03;34.66;99875.06;16119227;19;129940;-42
2023/03/07 17:20:16;;;;;;;2.42;0.50;;;;;;;19.00;34.53;99888.66;16114757;19;129669;-42
2023/03/07 17:25:38;;;;;;;3.33;0.63;;;;;;;18.97;34.84;99890.00;16115005;19;129591;-41
2023/03/07 17:31:00;;;;;;;1.00;0.40;;;;;;;18.96;34.52;99902.22;16117426;19;131240;-42
2023/03/07 17:36:22;;;;;;;1.08;0.30;;;;;;;18.98;34.52;99916.63;16113828;19;129364;-41
2023/03/07 17:41:44;;;;;;;0.63;0.40;;;;;;;19.14;34.94;99908.34;16114669;19;130690;-43
2023/03/07 17:47:06;;;;;;;0.50;0.32;;;;;;;19.31;34.86;99922.84;16113497;19;129004;-44
2023/03/07 17:52:28;;;;;;;2.63;0.45;;;;;;;19.43;34.30;99932.84;16112422;19;129528;-44
2023/03/07 17:57:51;;;;;;;2.45;0.40;;;;;;;19.47;34.01;99939.47;16115963;19;130872;-42
2023/03/07 18:03:12;;;;;;;1.85;0.40;;;;;;;19.47;34.02;99948.66;16117395;19;129505;-42
2023/03/07 18:08:36;;;;;;;0.90;0.30;;;;;;;19.43;34.03;99946.69;16113737;19;129689;-45
2023/03/07 18:13:57;;;;;;;1.70;0.50;;;;;;;19.35;34.18;99956.41;16111946;19;131834;-41
2023/03/07 18:19:19;;;;;;;2.33;0.32;;;;;;;19.33;33.57;99958.59;16123109;19;129848;-41
2023/03/07 18:24:52;;;;;;;1.80;0.30;;;;;;;19.43;33.53;99975.25;16127189;19;130095;-41
2023/03/07 18:30:14;;;;;;;1.25;0.32;;;;;;;19.53;33.57;99982.78;16130488;19;130292;-43
2023/03/07 18:35:36;;;;;;;25.15;1.20;;;;;;;19.66;33.82;99985.00;16125605;19;129650;-44
2023/03/07 18:41:04;;;;;;;12.77;0.95;;;;;;;19.83;33.35;99989.44;16123873;19;129620;-44
2023/03/07 18:46:29;;;;;;;14.77;1.15;;;;;;;20.07;33.60;99988.91;16124166;19;130468;-42
2023/03/07 18:51:52;;;;;;;12.02;0.80;;;;;;;20.48;33.14;99977.72;16121374;19;130864;-45
2023/03/07 18:57:14;;;;;;;6.03;0.70;;;;;;;20.85;33.05;99981.25;16124304;19;129978;-43
2023/03/07 19:02:37;;;;;;;6.20;1.15;;;;;;;21.08;33.14;99974.16;16125337;19;130651;-44
2023/03/07 19:07:59;;;;;;;6.55;0.77;;;;;;;21.17;32.67;99977.19;16124434;19;130322;-44
2023/03/07 19:13:21;;;;;;;7.95;0.57;;;;;;;21.15;32.79;99985.84;16121557;19;130237;-49
2023/03/07 19:18:43;;;;;;;6.95;0.82;;;;;;;21.06;33.52;99993.09;16122235;19;129674;-43
2023/03/07 19:24:06;;;;;;;17.70;1.40;;;;;;;20.96;33.55;99999.56;16122434;19;131995;-44
2023/03/07 19:29:28;;;;;;;18.15;1.42;;;;;;;20.84;33.86;99997.09;16121948;19;131306;-42
2023/03/07 19:34:50;;;;;;;17.23;1.65;;;;;;;20.78;34.27;100002.94;16127208;19;130687;-42
2023/03/07 19:40:12;;;;;;;22.40;1.77;;;;;;;20.80;34.11;99995.16;16123777;19;130491;-43
2023/03/07 19:45:39;;;;;;;27.00;1.98;;;;;;;20.89;34.06;99994.31;16124238;19;130328;-41
2023/03/07 19:51:01;;;;;;;21.48;2.05;;;;;;;21.03;33.86;99993.69;16121986;19;129628;-43
2023/03/07 19:56:30;;;;;;;28.02;1.60;;;;;;;21.15;34.01;100002.53;16119520;19;129853;-44
2023/03/07 20:01:52;;;;;;;16.30;1.98;;;;;;;21.43;33.85;99990.94;16116193;19;130136;-46
2023/03/07 20:07:14;;;;;;;11.15;0.90;;;;;;;21.80;33.68;99989.59;16121686;19;129944;-43
2023/03/07 20:12:36;;;;;;;11.38;0.90;;;;;;;22.17;33.57;100004.03;16120489;19;129800;-45
2023/03/07 20:17:58;;;;;;;9.10;0.80;;;;;;;22.52;32.90;100008.44;16119442;19;129645;-45
2023/03/07 20:23:19;;;;;;;9.68;1.55;;;;;;;22.83;32.42;99998.91;16114137;19;130374;-47
2023/03/07 20:28:42;;;;;;;5.28;0.88;;;;;;;23.09;32.35;99995.81;16104259;19;129740;-45
2023/03/07 20:34:04;;;;;;;6.95;0.80;;;;;;;23.18;31.99;99994.00;16116042;19;130882;-46
2023/03/07 20:39:25;;;;;;;9.18;1.42;;;;;;;23.18;32.21;99999.59;16119469;19;130836;-43
2023/03/07 20:44:47;;;;;;;11.70;0.70;;;;;;;23.11;32.24;100008.31;16115258;19;129919;-46
2023/03/07 20:50:09;;;;;;;5.32;0.60;;;;;;;22.99;32.00;100014.34;16118120;19;129755;-45
2023/03/07 20:55:32;;;;;;;6.38;0.68;;;;;;;22.83;32.68;100024.00;16116552;19;129343;-42
2023/03/07 21:00:54;;;;;;;8.20;0.77;;;;;;;22.63;32.77;100023.13;16120102;19;130738;-43
2023/03/07 21:06:17;;;;;;;15.18;1.10;;;;;;;22.38;32.39;100027.84;16118108;19;129726;-43
2023/03/07 21:11:43;;;;;;;10.05;0.95;;;;;;;22.16;32.67;100038.56;16118721;19;130168;-41
2023/03/07 21:17:05;;;;;;;14.10;1.42;;;;;;;21.95;32.92;100034.03;16118696;19;129334;-42
2023/03/07 21:22:27;;;;;;;7.88;0.75;;;;;;;21.73;33.02;100039.19;16113406;19;131361;-44
2023/03/07 21:27:49;;;;;;;10.65;1.13;;;;;;;21.59;33.19;100045.44;16116863;19;130256;-41
2023/03/07 21:33:10;;;;;;;8.98;1.00;;;;;;;21.50;33.52;100041.56;16117767;19;130232;-42
2023/03/07 21:38:33;;;;;;;13.38;1.00;;;;;;;21.43;33.79;100039.06;16114647;19;129596;-44
2023/03/07 21:43:56;;;;;;;7.03;0.77;;;;;;;21.36;33.92;100041.34;16116832;19;129426;-41
2023/03/07 21:49:17;;;;;;;10.48;0.70;;;;;;;21.27;34.03;100048.63;16111972;19;129453;-41
2023/03/07 21:54:39;;;;;;;8.60;0.80;;;;;;;21.15;34.02;100047.03;16120317;19;129994;-41
2023/03/07 22:00:05;;;;;;;7.78;0.98;;;;;;;21.04;34.04;100051.78;16127231;19;130297;-40
2023/03/07 22:05:27;;;;;;;9.15;1.02;;;;;;;20.93;34.31;100049.31;16121224;19;129513;-42
2023/03/07 22:10:58;;;;;;;6.32;1.05;;;;;;;20.81;34.75;100044.09;16128515;19;129586;-41
2023/03/07 22:16:20;;;;;;;6.75;0.60;;;;;;;20.70;34.82;100046.88;16128842;19;129367;-42
2023/03/07 22:21:42;;;;;;;3.47;0.43;;;;;;;20.59;34.64;100046.03;16128251;19;130692;-42
2023/03/07 22:27:05;;;;;;;2.30;0.50;;;;;;;20.52;34.60;100044.66;16130220;19;129361;-43
2023/03/07 22:32:27;;;;;;;3.33;0.57;;;;;;;20.42;34.99;100037.22;16133401;19;128979;-40
2023/03/07 22:37:49;;;;;;;2.38;0.40;;;;;;;20.34;34.81;100054.41;16130112;19;131112;-43
2023/03/07 22:43:11;;;;;;;2.53;0.68;;;;;;;20.24;34.92;100033.88;16128779;19;130863;-42
2023/03/07 22:48:33;;;;;;;4.15;0.60;;;;;;;20.16;34.87;100037.22;16129356;19;129789;-40
2023/03/07 22:53:55;;;;;;;1.73;0.70;;;;;;;20.09;35.18;100039.44;16130095;19;131549;-42
2023/03/07 22:59:17;;;;;;;2.05;0.40;;;;;;;20.03;35.10;100037.78;16128672;19;130627;-40
2023/03/07 23:04:38;;;;;;;4.78;0.50;;;;;;;19.95;35.53;100026.06;16122541;19;130010;-45
2023/03/07 23:10:00;;;;;;;5.35;0.55;;;;;;;19.88;35.13;100017.19;16124572;19;129374;-41
2023/03/07 23:15:23;;;;;;;3.20;0.30;;;;;;;19.83;35.63;100022.75;16119891;19;130547;-41
2023/03/07 23:20:45;;;;;;;3.15;0.47;;;;;;;19.79;35.50;100021.66;16122268;19;129265;-43
2023/03/07 23:26:07;;;;;;;1.20;0.35;;;;;;;19.72;35.67;100013.59;16123530;19;130036;-42
2023/03/07 23:31:35;;;;;;;1.42;0.30;;;;;;;19.67;35.48;99995.00;16123268;19;129550;-41
2023/03/07 23:36:56;;;;;;;3.92;0.82;;;;;;;19.61;35.75;99990.53;16126390;19;130011;-43
2023/03/07 23:42:18;;;;;;;1.40;0.50;;;;;;;19.56;35.86;99998.88;16122715;19;130512;-42
2023/03/07 23:47:40;;;;;;;0.70;0.38;;;;;;;19.51;35.76;99988.56;16118744;19;130300;-44
2023/03/07 23:53:02;;;;;;;0.88;0.30;;;;;;;19.47;35.47;99981.94;16120426;19;129511;-44
2023/03/07 23:58:24;;;;;;;0.90;0.40;;;;;;;19.43;35.45;99985.53;16121058;19;129343;-42
